KPZQ METAR Reports


Rogers City, Presque Isle County Airport, MI, United States (KPZQ) 45-24-25N 083-48-46W
Oct 01, 2020 - 02:55 AM EDT / 2020.10.01 0655 UTC
Wind: from the W (270 degrees) at 3 MPH (3 KT):0
Visibility: 10 mile(s):0
Sky conditions: mostly cloudy
Temperature: 47.3 F (8.5 C)
Dew Point: 44.6 F (7.0 C)
Relative Humidity: 90%
Pressure (altimeter): 29.69 in. Hg (1005 hPa)
ob: KPZQ 010655Z AUTO 27003KT 10SM BKN050 09/07 A2969 RMK AO2 T00850070
cycle: 7

 

Rogers City METAR Meteogram

Weather Chart

Nearby METAR Reports

KPZQ - Rogers City, Michigan, USA
Distance from station: SSW 1mi, 2km
Updated: Thu, 01-Oct-2020 2:55am EDT
Mostly cloudy
Mostly cloudy
 Wind from W
Wind: W 3 mph , 6 km/h
Temperature: 48°F , 9°C
Dew Point: 45°F , 7°C
Humidity: 87%
Barometer: 29.69 inHg , 1005.4 hPa
Clouds: Mostly cloudy
Visibility: 10 miles , 16 km
Cloud details: Mostly cloudy 5000 ft
2020/10/01 06:55 KPZQ 010655Z AUTO 27003KT 10SM BKN050 09/07 A2969 RMK AO2 T00850070
KAPN - Alpena, Michigan, USA
Distance from station: SSE 27mi, 43km
Updated: Thu, 01-Oct-2020 2:54am EDT
Few Clouds
Few Clouds
 Wind from W
Wind: W 6 mph , 9 km/h
Temperature: 48°F , 9°C
Wind Chill: 45°F , 7°C
Dew Point: 45°F , 7°C
Humidity: 87%
Barometer: 29.69 inHg , 1005.4 hPa
Clouds: Few Clouds
Visibility: 10 miles , 16 km
Cloud details: Few Clouds 12000 ft
2020/10/01 06:54 KAPN 010654Z 27005KT 10SM FEW120 09/07 A2969 RMK AO2 SLP057 T00890072
 
KSLH - Cheboygan, Michigan, USA
Distance from station: WNW 38mi, 61km
Updated: Thu, 01-Oct-2020 2:55am EDT
Partly cloudy
Partly cloudy
 Wind from SW
Wind: SW 3 mph , 6 km/h
Temperature: 46°F , 8°C
Dew Point: 46°F , 8°C
Humidity: 100%
Barometer: 29.67 inHg , 1004.7 hPa
Clouds: Partly cloudy
Visibility: 10 miles , 16 km
Cloud details: Partly cloudy 4900 ft
Partly cloudy 10000 ft
2020/10/01 06:55 KSLH 010655Z AUTO 23003KT 10SM SCT049 SCT100 08/08 A2967 RMK AO2 T00810075
KDRM - Drummond Is, Michigan, USA
Distance from station: N 40mi, 65km
Updated: Thu, 01-Oct-2020 2:55am EDT
Clear
Clear
 Wind from W
Wind: W 5 mph , 7 km/h
Temperature: 50°F , 10°C
Wind Chill: 48°F , 9°C
Dew Point: 46°F , 8°C
Humidity: 88%
Barometer: 29.65 inHg , 1004.1 hPa
Clouds: Clear
Visibility: 10 miles , 16 km
2020/10/01 06:55 KDRM 010655Z AUTO 28004KT 10SM CLR 10/08 A2965 RMK AO2 T00950075
 
KPLN - Pellston, Michigan, USA
Distance from station: WNW 49mi, 79km
Updated: Thu, 01-Oct-2020 2:54am EDT
Overcast
Overcast
 Wind from W
Wind: W 5 mph , 7 km/h
Temperature: 48°F , 9°C
Wind Chill: 46°F , 8°C
Dew Point: 46°F , 8°C
Humidity: 94%
Barometer: 29.69 inHg , 1005.4 hPa
Clouds: Overcast
Visibility: 10 miles , 16 km
Cloud details: Overcast 6000 ft
2020/10/01 06:54 KPLN 010654Z AUTO 28004KT 10SM OVC060 09/08 A2969 RMK AO2 SLP057 T00940078
KMCD - Mackinac Island, Michigan, USA
Distance from station: NW 50mi, 80km
Updated: Thu, 01-Oct-2020 2:55am EDT
Partly cloudy
Partly cloudy
 Wind from WNW
Wind: WNW 12 mph , 19 km/h
Temperature: 50°F , 10°C
Wind Chill: 45°F , 7°C
Dew Point: 48°F , 9°C
Humidity: 94%
Barometer: 29.68 inHg , 1005.1 hPa
Clouds: Partly cloudy
Visibility: 10 miles , 16 km
Cloud details: Partly cloudy 1800 ft
Partly cloudy 2400 ft
Partly cloudy 3600 ft
2020/10/01 06:55 KMCD 010655Z AUTO 29010KT 10SM SCT018 SCT024 SCT036 10/09 A2968 RMK AO2 T00970092